createdAt,value
2022-12-18T00:01:41.410Z,81.34
2022-12-18T00:06:46.576Z,81.65
2022-12-18T00:11:53.757Z,81.38
2022-12-18T00:17:00.540Z,81.24
2022-12-18T00:22:05.539Z,81.44
2022-12-18T00:27:10.666Z,81.28
2022-12-18T00:32:16.883Z,80.99
2022-12-18T00:37:21.866Z,80.95
2022-12-18T00:42:45.922Z,81.30
2022-12-18T00:47:50.657Z,81.47
2022-12-18T00:52:56.124Z,81.36
2022-12-18T00:58:00.916Z,81.45
2022-12-18T01:03:06.959Z,81.58
2022-12-18T01:08:13.096Z,81.39
2022-12-18T01:13:17.856Z,81.03
2022-12-18T01:18:22.458Z,80.95
2022-12-18T01:23:26.846Z,81.26
2022-12-18T01:28:31.945Z,81.29
2022-12-18T01:33:37.642Z,81.46
2022-12-18T01:38:43.298Z,81.44
2022-12-18T01:43:52.833Z,81.22
2022-12-18T01:49:01.684Z,81.11
2022-12-18T01:54:06.252Z,81.39
2022-12-18T01:59:13.626Z,81.22
2022-12-18T02:04:27.142Z,80.79
2022-12-18T02:09:41.535Z,81.12
2022-12-18T02:15:08.040Z,81.07
2022-12-18T02:21:03.921Z,81.31
2022-12-18T02:26:15.299Z,81.28
2022-12-18T02:31:26.303Z,81.39
2022-12-18T02:36:33.456Z,81.54
2022-12-18T02:41:40.025Z,81.53
2022-12-18T02:46:51.775Z,81.51
2022-12-18T02:51:59.176Z,81.67
2022-12-18T02:57:12.623Z,81.46
2022-12-18T03:02:32.903Z,81.07
2022-12-18T03:07:51.231Z,81.50
2022-12-18T03:13:06.563Z,81.37
2022-12-18T03:18:26.994Z,81.45
2022-12-18T03:23:36.550Z,81.56
2022-12-18T03:28:47.096Z,81.27
2022-12-18T03:34:02.392Z,81.33
2022-12-18T03:39:05.767Z,81.59
2022-12-18T03:44:32.327Z,81.72
2022-12-18T03:49:43.290Z,81.65
2022-12-18T03:54:49.038Z,81.35
2022-12-18T03:59:59.962Z,81.52
2022-12-18T04:05:09.278Z,81.50
2022-12-18T04:10:14.841Z,81.53
2022-12-18T04:15:19.624Z,81.42
2022-12-18T04:20:24.099Z,81.56
2022-12-18T04:25:28.113Z,81.55
2022-12-18T04:30:33.197Z,81.72
2022-12-18T04:35:37.928Z,81.70
2022-12-18T04:40:42.658Z,81.60
2022-12-18T04:45:47.585Z,81.69
2022-12-18T04:50:52.681Z,81.82
2022-12-18T04:56:06.370Z,81.81
2022-12-18T05:01:11.987Z,81.59
2022-12-18T05:06:16.507Z,81.60
2022-12-18T05:11:22.057Z,81.90
2022-12-18T05:16:27.240Z,81.84
2022-12-18T05:21:31.162Z,81.47
2022-12-18T05:26:36.090Z,81.58
2022-12-18T05:31:40.750Z,81.75
2022-12-18T05:36:46.438Z,81.69
2022-12-18T05:41:50.008Z,81.34
2022-12-18T05:46:54.763Z,81.43
2022-12-18T05:51:58.676Z,81.33
2022-12-18T05:57:02.893Z,81.51
2022-12-18T06:02:06.628Z,81.35
2022-12-18T06:07:11.678Z,81.29
2022-12-18T06:12:16.689Z,81.08
2022-12-18T06:17:20.354Z,81.08
2022-12-18T06:22:25.112Z,81.40
2022-12-18T06:27:28.765Z,81.47
2022-12-18T06:32:32.832Z,81.50
2022-12-18T06:37:37.896Z,81.26
2022-12-18T06:42:42.140Z,80.97
2022-12-18T06:47:46.165Z,81.12
2022-12-18T06:52:50.098Z,81.48
2022-12-18T06:57:54.043Z,81.49
2022-12-18T07:02:57.715Z,81.20
2022-12-18T07:08:01.740Z,81.37
2022-12-18T07:13:05.974Z,81.21
2022-12-18T07:18:10.229Z,81.27
2022-12-18T07:23:13.430Z,81.43
2022-12-18T07:28:17.663Z,81.26
2022-12-18T07:33:21.607Z,81.28
2022-12-18T07:38:25.646Z,81.13
2022-12-18T07:43:29.199Z,81.06
2022-12-18T07:48:32.921Z,81.33
2022-12-18T07:53:37.925Z,80.91
2022-12-18T07:58:43.849Z,81.01
2022-12-18T08:03:47.451Z,80.74
2022-12-18T08:08:56.856Z,80.85
2022-12-18T08:14:00.446Z,80.74
2022-12-18T08:19:05.682Z,80.71
2022-12-18T08:24:10.847Z,80.43
2022-12-18T08:29:19.951Z,80.15
2022-12-18T08:34:25.519Z,80.11
2022-12-18T08:39:29.830Z,80.29
2022-12-18T08:44:41.018Z,80.11
2022-12-18T08:49:46.075Z,79.76
2022-12-18T08:54:51.319Z,79.48
2022-12-18T08:59:56.992Z,79.31
2022-12-18T09:05:02.253Z,79.79
2022-12-18T09:10:07.514Z,79.82
2022-12-18T09:15:11.111Z,79.62
2022-12-18T09:20:15.468Z,79.31
2022-12-18T09:25:19.686Z,79.05
2022-12-18T09:30:23.598Z,78.88
2022-12-18T09:35:29.006Z,78.83
2022-12-18T09:40:41.319Z,78.75
2022-12-18T09:45:55.145Z,78.90
2022-12-18T09:51:07.256Z,78.84
2022-12-18T09:56:17.068Z,78.73
2022-12-18T10:01:24.542Z,78.37
2022-12-18T10:06:46.761Z,78.72
2022-12-18T10:12:18.466Z,78.41
2022-12-18T10:18:06.157Z,78.29
2022-12-18T10:23:27.807Z,78.15
2022-12-18T10:28:33.909Z,77.76
2022-12-18T10:33:37.626Z,77.70
2022-12-18T10:38:42.444Z,77.57
2022-12-18T10:43:48.134Z,77.72
2022-12-18T10:48:56.356Z,77.77
2022-12-18T10:54:07.833Z,77.63
2022-12-18T10:59:16.212Z,77.32
2022-12-18T11:04:22.911Z,77.44
2022-12-18T11:09:30.411Z,77.38
2022-12-18T11:14:47.328Z,77.48
2022-12-18T11:19:58.348Z,77.12
2022-12-18T11:25:33.217Z,77.13
2022-12-18T11:30:38.576Z,77.21
2022-12-18T11:35:49.624Z,77.34
2022-12-18T11:41:51.752Z,77.10
2022-12-18T11:47:07.655Z,76.11
2022-12-18T11:52:37.303Z,76.02
2022-12-18T11:58:16.164Z,76.52
2022-12-18T12:03:53.626Z,76.91
2022-12-18T12:09:18.770Z,76.86
2022-12-18T12:14:35.274Z,76.73
2022-12-18T12:20:11.036Z,77.06
2022-12-18T12:25:31.272Z,76.60
2022-12-18T12:30:48.648Z,76.13
2022-12-18T12:36:27.587Z,76.46
2022-12-18T12:41:54.466Z,77.25
2022-12-18T12:47:05.270Z,77.51
2022-12-18T12:52:36.279Z,77.18
2022-12-18T12:57:47.807Z,77.70
2022-12-18T13:03:04.395Z,77.54
2022-12-18T13:08:23.323Z,77.76
2022-12-18T13:14:02.483Z,77.75
2022-12-18T13:19:26.889Z,77.37
2022-12-18T13:24:32.644Z,77.31
2022-12-18T13:29:43.629Z,77.28
2022-12-18T13:34:47.693Z,76.65
2022-12-18T13:39:51.907Z,76.72
2022-12-18T13:44:55.550Z,77.57
2022-12-18T13:50:00.011Z,77.88
2022-12-18T13:55:16.523Z,78.09
2022-12-18T14:00:24.442Z,77.73
2022-12-18T14:05:36.904Z,78.18
2022-12-18T14:10:50.288Z,77.70
2022-12-18T14:15:55.073Z,77.99
2022-12-18T14:21:03.090Z,78.50
2022-12-18T14:26:31.035Z,78.85
2022-12-18T14:31:34.889Z,78.74
2022-12-18T14:36:41.511Z,78.24
2022-12-18T14:41:45.565Z,78.31
2022-12-18T14:46:52.943Z,78.63
2022-12-18T14:52:05.261Z,79.25
2022-12-18T14:57:25.631Z,79.20
2022-12-18T15:02:31.157Z,79.07
2022-12-18T15:07:44.990Z,79.57
2022-12-18T15:13:09.031Z,79.31
2022-12-18T15:18:23.245Z,79.15
2022-12-18T15:23:29.730Z,79.01
2022-12-18T15:28:39.518Z,79.40
2022-12-18T15:34:22.619Z,79.46
2022-12-18T15:39:27.509Z,79.49
2022-12-18T15:44:32.199Z,79.46
2022-12-18T15:49:37.356Z,79.34
2022-12-18T15:55:01.873Z,80.25
2022-12-18T18:41:00.917Z,81.92
2022-12-18T18:46:06.420Z,81.30
2022-12-18T18:51:13.942Z,81.13
2022-12-18T19:01:53.520Z,81.41
2022-12-18T19:06:59.166Z,81.40
2022-12-18T19:12:23.801Z,81.60
2022-12-18T19:17:30.735Z,81.55
2022-12-18T19:22:36.467Z,81.10
2022-12-18T19:27:40.309Z,81.28
2022-12-18T19:32:43.629Z,81.39
2022-12-18T19:37:46.883Z,81.58
2022-12-18T19:42:50.712Z,81.87
2022-12-18T19:47:57.511Z,81.89
2022-12-18T19:53:05.505Z,81.66
2022-12-18T19:58:12.410Z,81.55
2022-12-18T20:03:25.970Z,81.67
2022-12-18T20:08:34.430Z,82.03
2022-12-18T20:13:39.640Z,81.92
2022-12-18T20:18:44.795Z,81.81
2022-12-18T20:23:49.244Z,82.13
2022-12-18T20:28:55.743Z,82.17
2022-12-18T20:34:01.778Z,82.30
2022-12-18T20:39:10.937Z,82.30
2022-12-18T20:44:23.718Z,82.45
2022-12-18T20:49:29.232Z,82.67
2022-12-18T20:54:33.773Z,82.48
2022-12-18T20:59:43.342Z,82.31
2022-12-18T21:04:52.372Z,82.48
2022-12-18T21:09:58.511Z,82.48
2022-12-18T21:15:07.120Z,82.54
2022-12-18T21:20:17.299Z,82.61
2022-12-18T21:25:22.837Z,82.55
2022-12-18T21:30:29.247Z,82.44
2022-12-18T21:35:34.188Z,82.62
2022-12-18T21:40:40.044Z,82.50
2022-12-18T21:45:44.696Z,82.67
2022-12-18T21:50:50.038Z,82.79
2022-12-18T21:56:03.146Z,82.85
2022-12-18T22:01:09.434Z,82.66
2022-12-18T22:06:14.165Z,82.60
2022-12-18T22:11:19.616Z,82.72
2022-12-18T22:16:27.108Z,82.81
2022-12-18T22:21:33.695Z,82.99
2022-12-18T22:26:40.124Z,82.82
2022-12-18T22:31:45.596Z,83.08
2022-12-18T22:36:51.420Z,83.08
2022-12-18T22:41:56.795Z,83.12
2022-12-18T22:47:06.011Z,82.94
2022-12-18T22:52:11.774Z,82.88
2022-12-18T22:57:18.735Z,82.70
2022-12-18T23:02:24.325Z,82.49
2022-12-18T23:07:29.020Z,82.57
2022-12-18T23:12:38.065Z,82.42
2022-12-18T23:17:42.243Z,82.22
2022-12-18T23:22:47.160Z,82.52
2022-12-18T23:27:52.292Z,82.42
2022-12-18T23:32:57.085Z,82.42
2022-12-18T23:38:01.613Z,82.32
2022-12-18T23:43:06.605Z,82.53
2022-12-18T23:48:10.943Z,82.56
2022-12-18T23:53:16.571Z,82.55
2022-12-18T23:58:22.410Z,82.63
